createdAt,value
2019-05-06T00:01:39.287Z,5.50
2019-05-06T00:04:10.840Z,5.60
2019-05-06T00:06:40.201Z,5.70
2019-05-06T00:09:09.382Z,5.80
2019-05-06T00:11:38.813Z,5.90
2019-05-06T00:14:08.061Z,5.90
2019-05-06T00:16:37.563Z,5.90
2019-05-06T00:19:06.787Z,6.00
2019-05-06T00:21:35.911Z,6.10
2019-05-06T00:24:05.394Z,6.20
2019-05-06T00:26:48.195Z,6.20
2019-05-06T00:29:28.974Z,6.30
2019-05-06T00:31:58.225Z,6.30
2019-05-06T00:34:27.354Z,6.40
2019-05-06T00:36:57.042Z,6.40
2019-05-06T00:39:48.662Z,6.50
2019-05-06T00:42:34.392Z,6.60
2019-05-06T00:45:04.523Z,6.60
2019-05-06T00:47:34.139Z,6.50
2019-05-06T00:50:04.239Z,6.50
2019-05-06T00:52:34.051Z,6.60
2019-05-06T00:55:04.146Z,6.50
2019-05-06T00:57:58.737Z,6.50
2019-05-06T01:00:37.100Z,6.60
2019-05-06T01:03:07.961Z,6.60
2019-05-06T01:05:37.074Z,6.60
2019-05-06T01:08:06.199Z,6.60
2019-05-06T01:10:35.339Z,6.60
2019-05-06T01:13:14.562Z,6.60
2019-05-06T01:15:44.517Z,6.50
2019-05-06T01:18:13.914Z,6.50
2019-05-06T01:20:44.735Z,6.40
2019-05-06T01:23:17.877Z,6.30
2019-05-06T01:25:47.270Z,6.30
2019-05-06T01:28:16.931Z,6.10
2019-05-06T01:30:46.603Z,6.20
2019-05-06T01:33:16.848Z,6.00
2019-05-06T01:35:45.934Z,6.00
2019-05-06T01:38:26.800Z,5.90
2019-05-06T01:41:21.314Z,5.80
2019-05-06T01:43:50.522Z,5.80
2019-05-06T01:46:20.734Z,5.80
2019-05-06T01:48:51.114Z,5.80
2019-05-06T01:51:24.262Z,5.90
2019-05-06T01:53:54.714Z,5.90
2019-05-06T01:56:28.832Z,6.10
2019-05-06T01:58:58.205Z,6.30
2019-05-06T02:01:27.372Z,6.30
2019-05-06T02:03:58.614Z,6.40
2019-05-06T02:06:29.835Z,6.60
2019-05-06T02:08:59.376Z,6.50
2019-05-06T02:11:30.543Z,6.60
2019-05-06T02:14:00.053Z,6.60
2019-05-06T02:16:30.871Z,6.60
2019-05-06T02:19:00.153Z,6.60
2019-05-06T02:21:47.939Z,6.60
2019-05-06T02:24:24.211Z,6.60
2019-05-06T02:26:54.227Z,6.60
2019-05-06T02:29:25.781Z,6.70
2019-05-06T02:32:25.923Z,6.60
2019-05-06T02:34:56.859Z,6.60
2019-05-06T02:37:34.948Z,6.60
2019-05-06T02:40:07.172Z,6.70
2019-05-06T02:42:36.297Z,6.70
2019-05-06T02:45:05.631Z,6.70
2019-05-06T02:47:50.316Z,6.80
2019-05-06T02:50:23.901Z,7.00
2019-05-06T02:52:53.764Z,7.10
2019-05-06T02:55:25.950Z,7.10
2019-05-06T02:57:55.205Z,7.20
2019-05-06T03:00:24.402Z,7.20
2019-05-06T03:02:54.342Z,7.20
2019-05-06T03:05:23.896Z,7.20
2019-05-06T03:07:56.971Z,7.20
2019-05-06T03:10:24.858Z,7.20
2019-05-06T03:12:55.370Z,7.20
2019-05-06T03:15:24.934Z,7.20
2019-05-06T03:17:55.476Z,7.20
2019-05-06T03:20:44.019Z,7.10
2019-05-06T03:23:16.349Z,7.00
2019-05-06T03:25:48.160Z,7.10
2019-05-06T03:28:17.438Z,7.00
2019-05-06T03:30:46.579Z,7.00
2019-05-06T03:33:40.181Z,6.90
2019-05-06T03:36:00.635Z,6.90
2019-05-06T03:38:22.906Z,7.00
2019-05-06T03:41:13.689Z,7.00
2019-05-06T03:43:43.408Z,7.10
2019-05-06T03:46:26.689Z,7.10
2019-05-06T03:49:03.522Z,7.30
2019-05-06T03:51:34.307Z,7.40
2019-05-06T03:54:05.588Z,7.50
2019-05-06T03:56:36.970Z,7.60
2019-05-06T03:59:07.641Z,7.60
2019-05-06T04:01:46.012Z,7.60
2019-05-06T04:04:16.008Z,7.70
2019-05-06T04:06:45.704Z,7.70
2019-05-06T04:09:15.070Z,7.60
2019-05-06T04:11:46.466Z,7.50
2019-05-06T04:14:18.493Z,7.50
2019-05-06T04:16:55.488Z,7.50
2019-05-06T04:19:33.096Z,7.50
2019-05-06T04:22:13.046Z,7.60
2019-05-06T04:25:04.055Z,7.50
2019-05-06T04:27:45.016Z,7.50
2019-05-06T04:30:15.675Z,7.60
2019-05-06T04:32:44.865Z,7.60
2019-05-06T04:35:14.551Z,7.60
2019-05-06T04:37:44.146Z,7.60
2019-05-06T04:40:13.781Z,7.60
2019-05-06T04:42:44.568Z,7.60
2019-05-06T04:45:17.435Z,7.60
2019-05-06T04:47:46.836Z,7.50
2019-05-06T04:50:16.033Z,7.50
2019-05-06T04:52:45.142Z,7.30
2019-05-06T04:55:15.314Z,7.30
2019-05-06T04:57:44.483Z,7.10
2019-05-06T05:00:16.165Z,7.00
2019-05-06T05:02:46.342Z,6.80
2019-05-06T05:05:15.883Z,6.80
2019-05-06T05:07:45.739Z,6.90
2019-05-06T05:10:20.007Z,6.90
2019-05-06T05:13:12.540Z,6.80
2019-05-06T05:15:52.472Z,6.20
2019-05-06T05:18:26.076Z,6.00
2019-05-06T05:20:55.600Z,5.90
2019-05-06T05:23:29.057Z,5.90
2019-05-06T05:26:02.719Z,5.90
2019-05-06T05:28:32.361Z,5.90
2019-05-06T05:31:03.078Z,5.90
2019-05-06T05:33:32.846Z,5.90
2019-05-06T05:36:04.112Z,6.00
2019-05-06T05:38:34.784Z,6.00
2019-05-06T05:41:05.267Z,6.10
2019-05-06T05:43:52.668Z,6.20
2019-05-06T05:46:21.962Z,6.30
2019-05-06T05:49:11.964Z,6.40
2019-05-06T05:51:42.569Z,6.50
2019-05-06T05:54:12.481Z,6.50
2019-05-06T05:56:43.231Z,6.60
2019-05-06T05:59:12.701Z,6.60
2019-05-06T06:01:43.492Z,6.70
2019-05-06T06:04:14.335Z,6.70
2019-05-06T06:06:43.491Z,6.70
2019-05-06T06:09:12.850Z,6.70
2019-05-06T06:11:48.315Z,6.70
2019-05-06T06:14:55.298Z,6.70
2019-05-06T06:17:45.167Z,6.60
2019-05-06T06:20:37.129Z,6.60
2019-05-06T06:23:16.033Z,6.70
2019-05-06T06:25:45.549Z,6.70
2019-05-06T06:28:16.139Z,6.80
2019-05-06T06:30:54.990Z,6.80
2019-05-06T06:33:26.937Z,6.90
2019-05-06T06:36:05.533Z,7.00
2019-05-06T06:38:56.778Z,7.20
2019-05-06T06:41:25.937Z,7.30
2019-05-06T06:44:05.441Z,7.30
2019-05-06T06:46:37.009Z,7.40
2019-05-06T06:49:06.384Z,7.40
2019-05-06T06:51:35.676Z,7.40
2019-05-06T06:54:05.058Z,7.50
2019-05-06T06:57:05.630Z,7.50
2019-05-06T06:59:35.482Z,7.50
2019-05-06T07:02:23.787Z,7.50
2019-05-06T07:05:27.616Z,7.50
2019-05-06T07:07:49.571Z,7.60
2019-05-06T07:10:36.601Z,7.60
2019-05-06T07:13:05.832Z,7.70
2019-05-06T07:15:34.996Z,7.70
2019-05-06T07:18:05.076Z,7.80
2019-05-06T07:20:39.574Z,7.90
2019-05-06T07:23:24.122Z,7.90
2019-05-06T07:25:55.459Z,8.00
2019-05-06T07:28:26.032Z,8.00
2019-05-06T07:30:56.369Z,7.80
2019-05-06T07:33:25.775Z,7.80
2019-05-06T07:35:58.357Z,7.80
2019-05-06T07:38:27.931Z,8.10
2019-05-06T07:41:06.900Z,8.10
2019-05-06T07:43:55.199Z,8.20
2019-05-06T07:46:44.788Z,8.40
2019-05-06T07:49:14.348Z,8.60
2019-05-06T07:51:43.451Z,9.10
2019-05-06T07:54:12.621Z,9.30
2019-05-06T07:56:42.890Z,9.40
2019-05-06T07:59:12.767Z,9.50
2019-05-06T08:01:43.788Z,9.70
2019-05-06T08:04:13.938Z,9.80
2019-05-06T08:06:43.124Z,9.90
2019-05-06T08:09:13.754Z,10.20
2019-05-06T08:11:45.512Z,10.60
2019-05-06T08:14:14.642Z,11.00
2019-05-06T08:16:54.395Z,11.30
2019-05-06T08:19:25.156Z,11.50
2019-05-06T08:21:56.400Z,11.40
2019-05-06T08:24:25.543Z,11.70
2019-05-06T08:26:55.752Z,11.40
2019-05-06T08:29:25.289Z,11.60
2019-05-06T08:31:54.948Z,11.60
2019-05-06T08:34:24.060Z,11.70
2019-05-06T08:37:03.315Z,11.60
2019-05-06T08:39:32.766Z,11.40
2019-05-06T08:42:02.802Z,11.30
2019-05-06T08:44:34.651Z,11.20
2019-05-06T08:47:06.714Z,11.10
2019-05-06T08:50:15.147Z,11.00
2019-05-06T08:53:05.016Z,11.00
2019-05-06T08:55:37.605Z,11.10
2019-05-06T08:58:09.542Z,10.80
2019-05-06T09:00:44.815Z,10.70
2019-05-06T09:03:14.479Z,10.50
2019-05-06T09:05:48.983Z,10.40
2019-05-06T09:08:18.327Z,10.30
2019-05-06T09:10:47.684Z,10.30
2019-05-06T09:13:16.894Z,10.30
2019-05-06T09:15:46.006Z,10.30
2019-05-06T09:18:18.149Z,10.40
2019-05-06T09:20:48.596Z,10.50
2019-05-06T09:23:17.738Z,10.70
2019-05-06T09:25:48.542Z,11.00
2019-05-06T09:28:37.156Z,11.20
2019-05-06T09:31:14.858Z,11.70
2019-05-06T09:33:50.356Z,12.10
2019-05-06T09:36:22.739Z,12.40
2019-05-06T09:38:52.954Z,12.70
2019-05-06T09:41:23.107Z,13.00
2019-05-06T09:43:52.935Z,13.50
2019-05-06T09:46:23.208Z,14.50
2019-05-06T09:49:13.097Z,15.10
2019-05-06T09:51:42.916Z,15.80
2019-05-06T09:54:23.350Z,16.10
2019-05-06T09:57:14.590Z,15.80
2019-05-06T09:59:44.017Z,15.90
2019-05-06T10:02:15.138Z,15.90
2019-05-06T10:04:46.431Z,15.80
2019-05-06T10:07:15.629Z,16.10
2019-05-06T10:09:44.878Z,16.60
2019-05-06T10:12:15.906Z,17.00
2019-05-06T10:14:46.352Z,16.80
2019-05-06T10:17:15.712Z,17.00
2019-05-06T10:19:44.932Z,16.70
2019-05-06T10:22:14.112Z,16.40
2019-05-06T10:24:43.462Z,15.90
2019-05-06T10:27:19.762Z,15.70
2019-05-06T10:30:09.480Z,15.60
2019-05-06T10:32:42.750Z,15.60
2019-05-06T10:35:13.077Z,15.30
2019-05-06T10:38:06.840Z,15.40
2019-05-06T10:40:57.342Z,15.80
2019-05-06T10:43:21.977Z,15.80
2019-05-06T10:45:52.059Z,14.50
2019-05-06T10:48:24.839Z,14.90
2019-05-06T10:50:59.995Z,15.00
2019-05-06T10:53:29.594Z,15.10
2019-05-06T10:56:02.410Z,14.30
2019-05-06T10:58:36.090Z,14.70
2019-05-06T11:01:18.390Z,15.30
2019-05-06T11:03:47.659Z,15.10
2019-05-06T11:06:16.786Z,14.50
2019-05-06T11:08:47.180Z,14.70
2019-05-06T11:11:32.759Z,14.70
2019-05-06T11:13:53.239Z,14.00
2019-05-06T11:16:23.755Z,14.40
2019-05-06T11:18:53.605Z,14.70
2019-05-06T11:21:24.907Z,14.90
2019-05-06T11:23:54.340Z,15.20
2019-05-06T11:26:23.800Z,15.20
2019-05-06T11:28:57.528Z,15.60
2019-05-06T11:31:47.017Z,15.90
2019-05-06T11:34:37.557Z,16.40
2019-05-06T11:37:23.447Z,17.50
2019-05-06T11:39:53.003Z,17.70
2019-05-06T11:42:30.962Z,18.10
2019-05-06T11:44:53.708Z,18.30
2019-05-06T11:47:24.162Z,18.80
2019-05-06T11:49:56.898Z,18.30
2019-05-06T11:52:26.148Z,18.20
2019-05-06T11:54:55.184Z,18.70
2019-05-06T11:57:26.620Z,18.50
2019-05-06T11:59:56.150Z,18.90
2019-05-06T12:02:26.702Z,18.80
2019-05-06T12:04:55.957Z,18.50
2019-05-06T12:07:25.194Z,18.20
2019-05-06T12:09:54.750Z,18.10
2019-05-06T12:12:24.019Z,18.30
2019-05-06T12:14:53.664Z,18.30
2019-05-06T12:17:23.014Z,18.00
2019-05-06T12:19:52.849Z,18.40
2019-05-06T12:22:24.328Z,18.40
2019-05-06T12:24:54.749Z,17.70
2019-05-06T12:27:44.191Z,16.20
2019-05-06T12:30:15.879Z,16.60
2019-05-06T12:33:07.273Z,17.40
2019-05-06T12:35:38.374Z,17.70
2019-05-06T12:38:23.823Z,17.80
2019-05-06T12:40:40.183Z,18.30
2019-05-06T12:43:29.219Z,18.40
2019-05-06T12:46:08.265Z,17.40
2019-05-06T12:48:38.392Z,16.60
2019-05-06T12:51:09.383Z,16.90
2019-05-06T12:53:38.674Z,17.50
2019-05-06T12:56:12.376Z,16.20
2019-05-06T12:58:44.054Z,16.50
2019-05-06T13:01:13.871Z,16.80
2019-05-06T13:03:48.179Z,16.00
2019-05-06T13:06:17.707Z,16.60
2019-05-06T13:08:58.522Z,16.50
2019-05-06T13:11:21.617Z,16.40
2019-05-06T13:13:57.342Z,17.40
2019-05-06T13:16:22.907Z,16.40
2019-05-06T13:18:54.947Z,16.00
2019-05-06T13:21:25.028Z,15.90
2019-05-06T13:24:04.600Z,14.70
2019-05-06T13:26:33.525Z,13.80
2019-05-06T13:29:08.245Z,13.50
2019-05-06T13:31:37.483Z,13.10
2019-05-06T13:34:12.069Z,12.60
2019-05-06T13:36:42.890Z,12.90
2019-05-06T13:39:15.249Z,12.90
2019-05-06T13:41:44.673Z,13.00
2019-05-06T13:44:17.165Z,12.90
2019-05-06T13:46:55.707Z,13.80
2019-05-06T13:49:48.631Z,13.20
2019-05-06T13:52:22.934Z,13.60
2019-05-06T13:54:56.710Z,14.20
2019-05-06T13:57:28.888Z,15.10
2019-05-06T14:00:03.008Z,15.70
2019-05-06T14:02:37.901Z,15.90
2019-05-06T14:05:07.564Z,16.10
2019-05-06T14:07:37.481Z,15.80
2019-05-06T14:10:12.993Z,13.70
2019-05-06T14:12:42.602Z,13.10
2019-05-06T14:15:13.949Z,12.20
2019-05-06T14:17:44.074Z,11.80
2019-05-06T14:20:15.154Z,11.30
2019-05-06T14:22:47.608Z,10.90
2019-05-06T14:25:33.146Z,11.00
2019-05-06T14:28:15.016Z,10.90
2019-05-06T14:31:03.318Z,11.10
2019-05-06T14:33:34.101Z,11.00
2019-05-06T14:36:03.452Z,11.00
2019-05-06T14:38:33.032Z,11.30
2019-05-06T14:41:18.530Z,11.20
2019-05-06T14:43:48.199Z,11.40
2019-05-06T14:46:18.702Z,10.90
2019-05-06T14:48:53.494Z,11.00
2019-05-06T14:51:22.561Z,10.90
2019-05-06T14:53:54.123Z,11.00
2019-05-06T14:56:34.543Z,11.10
2019-05-06T14:59:04.522Z,10.90
2019-05-06T15:01:37.103Z,11.10
2019-05-06T15:04:06.746Z,10.80
2019-05-06T15:06:36.122Z,11.00
2019-05-06T15:09:08.626Z,11.10
2019-05-06T15:11:39.392Z,11.10
2019-05-06T15:14:13.071Z,11.50
2019-05-06T15:16:43.850Z,12.10
2019-05-06T15:19:13.303Z,12.10
2019-05-06T15:21:43.087Z,11.80
2019-05-06T15:24:14.202Z,12.00
2019-05-06T15:26:43.436Z,11.60
2019-05-06T15:29:14.680Z,11.10
2019-05-06T15:32:02.964Z,10.50
2019-05-06T15:34:47.649Z,10.40
2019-05-06T15:37:27.346Z,10.10
2019-05-06T15:39:58.677Z,10.20
2019-05-06T15:42:29.606Z,10.10
2019-05-06T15:44:58.924Z,10.10
2019-05-06T15:47:28.438Z,10.20
2019-05-06T15:50:00.940Z,10.10
2019-05-06T15:52:32.471Z,10.10
2019-05-06T15:55:03.243Z,10.10
2019-05-06T15:57:43.277Z,10.30
2019-05-06T16:00:15.799Z,10.10
2019-05-06T16:02:46.163Z,10.20
2019-05-06T16:05:20.133Z,10.20
2019-05-06T16:07:52.867Z,10.00
2019-05-06T16:10:27.527Z,10.10
2019-05-06T16:12:57.926Z,10.10
2019-05-06T16:15:29.948Z,10.20
2019-05-06T16:17:59.344Z,10.20
2019-05-06T16:20:33.157Z,10.10
2019-05-06T16:23:27.739Z,10.00
2019-05-06T16:25:57.079Z,10.00
2019-05-06T16:28:29.455Z,10.30
2019-05-06T16:31:05.142Z,10.20
2019-05-06T16:33:37.644Z,10.20
2019-05-06T16:36:13.444Z,10.30
2019-05-06T16:38:43.360Z,10.20
2019-05-06T16:41:16.371Z,10.20
2019-05-06T16:43:45.648Z,10.30
2019-05-06T16:46:17.772Z,10.40
2019-05-06T16:48:47.969Z,10.30
2019-05-06T16:51:18.053Z,10.20
2019-05-06T16:53:47.210Z,10.10
2019-05-06T16:56:26.802Z,10.10
2019-05-06T16:59:02.978Z,10.20
2019-05-06T17:01:34.506Z,10.20
2019-05-06T17:04:32.818Z,10.20
2019-05-06T17:07:03.800Z,10.20
2019-05-06T17:09:33.347Z,10.00
2019-05-06T17:12:05.937Z,10.00
2019-05-06T17:14:37.403Z,10.00
2019-05-06T17:17:06.535Z,10.10
2019-05-06T17:19:37.235Z,10.00
2019-05-06T17:22:06.409Z,9.90
2019-05-06T17:24:42.122Z,9.90
2019-05-06T17:27:12.068Z,9.80
2019-05-06T17:29:50.993Z,9.70
2019-05-06T17:32:36.911Z,9.60
2019-05-06T17:35:08.027Z,9.60
2019-05-06T17:37:56.045Z,9.40
2019-05-06T17:40:28.032Z,9.20
2019-05-06T17:42:57.376Z,9.30
2019-05-06T17:45:58.009Z,9.30
2019-05-06T17:48:37.486Z,9.00
2019-05-06T17:51:13.483Z,9.10
2019-05-06T17:53:52.273Z,9.00
2019-05-06T17:56:22.376Z,8.90
2019-05-06T17:58:54.360Z,8.90
2019-05-06T18:01:34.501Z,8.80
2019-05-06T18:04:04.450Z,8.80
2019-05-06T18:06:36.481Z,8.70
2019-05-06T18:09:12.428Z,8.50
2019-05-06T18:11:42.439Z,8.50
2019-05-06T18:14:18.716Z,8.20
2019-05-06T18:16:53.768Z,8.10
2019-05-06T18:19:25.745Z,8.10
2019-05-06T18:22:02.394Z,8.10
2019-05-06T18:24:34.143Z,8.00
2019-05-06T18:27:03.300Z,7.80
2019-05-06T18:29:33.589Z,7.80
2019-05-06T18:32:03.910Z,7.90
2019-05-06T18:34:35.585Z,8.00
2019-05-06T18:37:05.492Z,8.10
2019-05-06T18:39:34.923Z,8.10
2019-05-06T18:42:18.787Z,7.90
2019-05-06T18:44:37.241Z,8.00
2019-05-06T18:47:06.771Z,8.10
2019-05-06T18:49:37.996Z,8.10
2019-05-06T18:52:07.167Z,8.10
2019-05-06T18:54:36.429Z,8.00
2019-05-06T18:57:05.973Z,8.00
2019-05-06T18:59:36.934Z,8.00
2019-05-06T19:02:06.716Z,8.00
2019-05-06T19:04:47.101Z,8.00
2019-05-06T19:07:17.249Z,8.00
2019-05-06T19:09:55.259Z,8.10
2019-05-06T19:12:39.833Z,8.10
2019-05-06T19:15:03.344Z,8.10
2019-05-06T19:17:36.957Z,8.10
2019-05-06T19:20:08.233Z,8.10
2019-05-06T19:22:37.586Z,8.10
2019-05-06T19:25:07.602Z,8.00
2019-05-06T19:27:38.240Z,8.00
2019-05-06T19:30:10.022Z,8.00
2019-05-06T19:32:42.458Z,7.90
2019-05-06T19:35:13.210Z,7.90
2019-05-06T19:37:42.581Z,7.80
2019-05-06T19:40:12.172Z,7.70
2019-05-06T19:42:49.654Z,7.70
2019-05-06T19:45:16.305Z,7.70
2019-05-06T19:47:45.771Z,7.60
2019-05-06T19:50:15.076Z,7.50
2019-05-06T19:52:44.578Z,7.40
2019-05-06T19:55:13.796Z,7.30
2019-05-06T19:57:43.877Z,7.20
2019-05-06T20:00:13.353Z,7.20
2019-05-06T20:02:43.054Z,7.10
2019-05-06T20:05:22.686Z,7.10
2019-05-06T20:08:07.234Z,7.10
2019-05-06T20:10:58.950Z,7.10
2019-05-06T20:13:42.415Z,7.00
2019-05-06T20:16:12.532Z,7.00
2019-05-06T20:18:42.697Z,7.10
2019-05-06T20:21:12.256Z,7.10
2019-05-06T20:23:43.365Z,7.20
2019-05-06T20:26:15.528Z,7.30
2019-05-06T20:28:45.631Z,7.30
2019-05-06T20:31:15.235Z,7.20
2019-05-06T20:33:46.542Z,7.30
2019-05-06T20:36:15.762Z,7.30
2019-05-06T20:38:45.080Z,7.30
2019-05-06T20:41:14.936Z,7.30
2019-05-06T20:43:46.842Z,7.30
2019-05-06T20:46:16.039Z,7.30
2019-05-06T20:48:47.657Z,7.30
2019-05-06T20:51:16.816Z,7.30
2019-05-06T20:53:46.295Z,7.30
2019-05-06T20:56:18.156Z,7.20
2019-05-06T20:58:52.947Z,7.20
2019-05-06T21:01:22.417Z,7.10
2019-05-06T21:03:52.876Z,7.00
2019-05-06T21:06:27.741Z,6.90
2019-05-06T21:08:57.906Z,6.80
2019-05-06T21:11:32.425Z,6.70
2019-05-06T21:14:02.264Z,6.60
2019-05-06T21:16:32.270Z,6.60
2019-05-06T21:19:03.207Z,6.50
2019-05-06T21:21:32.530Z,6.40
2019-05-06T21:24:02.494Z,6.30
2019-05-06T21:26:33.889Z,6.30
2019-05-06T21:29:03.344Z,6.30
2019-05-06T21:31:32.728Z,6.20
2019-05-06T21:34:04.192Z,6.20
2019-05-06T21:36:33.618Z,6.10
2019-05-06T21:39:02.853Z,6.00
2019-05-06T21:41:33.277Z,5.90
2019-05-06T21:44:02.553Z,5.80
2019-05-06T21:46:32.346Z,5.50
2019-05-06T21:49:02.816Z,5.40
2019-05-06T21:51:33.102Z,5.40
2019-05-06T21:54:02.869Z,5.60
2019-05-06T21:56:32.351Z,5.20
2019-05-06T21:59:02.103Z,5.20
2019-05-06T22:01:33.050Z,5.30
2019-05-06T22:04:03.225Z,5.00
2019-05-06T22:06:33.239Z,5.10
2019-05-06T22:09:04.568Z,5.00
2019-05-06T22:11:34.497Z,5.10
2019-05-06T22:14:03.615Z,5.20
2019-05-06T22:16:33.551Z,5.20
2019-05-06T22:19:02.720Z,5.30
2019-05-06T22:21:34.653Z,5.40
2019-05-06T22:24:06.922Z,5.30
2019-05-06T22:26:42.974Z,5.40
2019-05-06T22:29:12.883Z,5.40
2019-05-06T22:31:44.206Z,5.20
2019-05-06T22:34:15.848Z,5.20
2019-05-06T22:36:44.582Z,5.20
2019-05-06T22:39:14.111Z,5.30
2019-05-06T22:41:45.388Z,5.20
2019-05-06T22:44:17.127Z,5.30
2019-05-06T22:46:46.888Z,5.30
2019-05-06T22:49:16.884Z,5.20
2019-05-06T22:51:46.013Z,5.30
2019-05-06T22:54:15.436Z,5.50
2019-05-06T22:56:45.046Z,5.50
2019-05-06T22:59:14.198Z,5.60
2019-05-06T23:02:06.933Z,5.60
2019-05-06T23:04:39.184Z,5.60
2019-05-06T23:07:08.735Z,5.60
2019-05-06T23:09:44.539Z,5.70
2019-05-06T23:12:13.423Z,5.80
2019-05-06T23:14:44.915Z,5.80
2019-05-06T23:17:15.071Z,5.80
2019-05-06T23:19:47.017Z,5.90
2019-05-06T23:22:16.273Z,5.90
2019-05-06T23:24:52.268Z,5.90
2019-05-06T23:27:23.240Z,5.80
2019-05-06T23:29:52.684Z,5.70
2019-05-06T23:32:22.882Z,5.60
2019-05-06T23:34:56.524Z,5.60
2019-05-06T23:37:24.884Z,5.70
2019-05-06T23:40:42.515Z,5.80
2019-05-06T23:43:47.402Z,5.90
2019-05-06T23:46:52.935Z,5.80
2019-05-06T23:49:57.808Z,5.80
2019-05-06T23:53:03.151Z,5.70
2019-05-06T23:56:09.134Z,5.60
2019-05-06T23:58:38.330Z,5.70
